Sligo Airport - TAF
(Terminal Area Forecast)


Issued at 09:36 UTC on Tue. 6-Dec-22


--- METARS(SA) ---
METAR EISG(SLIGO) 060930Z VRB02KT CAVOK 02/M01 Q1030 =


--- TAFS() ---
TAF EISG(SLIGO) 060800Z 0609/0618 07007KT 9999 SCT040 =


--- SIGMETS(WS) ---
IE - No VALID SIGMETS/Warnings FOR THIS AREA

--- SIGMETS Volcanic(WV) ---
IE - No VALID SIGMETS/Warnings FOR THIS AREA

--- SIGMETS(WS) ---
UK - No VALID SIGMETS/Warnings FOR THIS AREA

Sligo Airport - METARs

Latest METARs for Sligo and Donegal Airports - updated every 30 mins